Time;durP1;ratioP1;P1;durP2;ratioP2;P2;SDS_P1;SDS_P2;PMS_P1;PMS_P2;Temp;Humidity;BMP_temperature;BMP_pressure;BME280_temperature;BME280_humidity;BME280_pressure;Samples;Min_cycle;Max_cycle;Signal;HPM_P1;HPM_P2
2022/04/17 00:01:56;;;;;;;3.20;2.20;;;13.20;62.60;;;;;;5042504;28;20117;-61
2022/04/17 00:04:22;;;;;;;2.30;2.10;;;13.10;62.40;;;;;;5051828;28;20116;-61
2022/04/17 00:06:48;;;;;;;2.58;2.10;;;13.10;62.50;;;;;;5031767;28;20089;-61
2022/04/17 00:09:13;;;;;;;2.10;1.90;;;13.10;62.40;;;;;;5052954;28;20116;-60
2022/04/17 00:11:41;;;;;;;3.03;2.08;;;13.00;62.50;;;;;;5050433;28;20029;-61
2022/04/17 00:14:10;;;;;;;2.60;2.40;;;13.00;62.60;;;;;;5041273;28;20099;-61
2022/04/17 00:16:36;;;;;;;2.90;2.08;;;13.00;62.40;;;;;;5054940;28;20025;-61
2022/04/17 00:19:01;;;;;;;2.80;2.50;;;12.90;62.30;;;;;;5040442;28;20055;-60
2022/04/17 00:21:27;;;;;;;2.90;2.17;;;12.90;62.40;;;;;;5052433;28;20495;-60
2022/04/17 00:23:52;;;;;;;3.60;2.38;;;12.90;62.50;;;;;;5041561;28;20530;-61
2022/04/17 00:26:19;;;;;;;2.58;2.15;;;12.90;62.40;;;;;;5020886;28;20060;-62
2022/04/17 00:28:44;;;;;;;2.50;2.30;;;12.80;62.40;;;;;;5056036;28;20092;-61
2022/04/17 00:31:10;;;;;;;2.28;2.08;;;12.80;62.40;;;;;;5060087;28;20024;-60
2022/04/17 00:33:35;;;;;;;3.30;2.20;;;12.70;62.40;;;;;;5044877;28;20036;-61
2022/04/17 00:36:01;;;;;;;2.78;2.10;;;12.70;62.30;;;;;;5058246;28;20119;-60
2022/04/17 00:38:26;;;;;;;2.92;2.13;;;12.80;62.50;;;;;;5059285;28;20032;-60
2022/04/17 00:40:54;;;;;;;2.40;2.20;;;12.70;62.40;;;;;;5055387;28;20031;-61
2022/04/17 00:43:30;;;;;;;2.45;2.25;;;12.60;62.40;;;;;;5042203;28;20024;-61
2022/04/17 00:45:55;;;;;;;;;;;12.60;62.20;;;;;;5040644;28;20013;-61
2022/04/17 00:48:21;;;;;;;2.78;2.38;;;12.60;62.20;;;;;;5058794;28;19916;-61
2022/04/17 00:50:46;;;;;;;4.55;2.47;;;12.60;62.20;;;;;;5040146;28;20036;-61
2022/04/17 00:53:12;;;;;;;2.58;2.35;;;12.60;62.20;;;;;;5041583;28;20499;-61
2022/04/17 00:55:38;;;;;;;4.07;2.25;;;12.50;62.10;;;;;;5040006;28;20027;-61
2022/04/17 00:58:04;;;;;;;4.32;2.40;;;12.50;62.10;;;;;;5040201;28;20484;-60
2022/04/17 01:00:29;;;;;;;5.90;2.42;;;12.50;62.10;;;;;;5045736;28;20028;-61
2022/04/17 01:02:55;;;;;;;2.85;2.40;;;12.40;62.10;;;;;;5064450;28;20024;-61
2022/04/17 01:05:20;;;;;;;2.55;2.35;;;12.30;62.00;;;;;;5045638;28;20111;-61
2022/04/17 01:07:46;;;;;;;2.67;2.28;;;12.30;62.10;;;;;;5041674;28;20025;-61
2022/04/17 01:10:12;;;;;;;3.85;2.42;;;12.30;62.00;;;;;;5043471;28;20322;-60
2022/04/17 01:12:37;;;;;;;3.17;2.60;;;12.30;62.00;;;;;;5044732;28;20048;-61
2022/04/17 01:15:03;;;;;;;4.50;2.83;;;12.20;61.90;;;;;;5044853;28;20072;-60
2022/04/17 01:17:29;;;;;;;2.67;2.30;;;12.20;62.00;;;;;;5045193;28;20031;-61
2022/04/17 01:19:54;;;;;;;3.97;2.50;;;12.20;62.10;;;;;;5063509;28;20033;-60
2022/04/17 01:22:20;;;;;;;3.10;2.00;;;12.20;62.00;;;;;;5062903;28;20052;-60
2022/04/17 01:27:30;;;;;;;3.28;2.40;;;12.10;61.80;;;;;;5064123;28;20750;-61
2022/04/17 01:29:55;;;;;;;2.33;2.10;;;12.10;61.80;;;;;;5045002;28;20111;-61
2022/04/17 01:32:21;;;;;;;4.55;2.58;;;12.00;61.80;;;;;;5074987;28;20058;-61
2022/04/17 01:34:47;;;;;;;3.45;2.88;;;12.10;61.90;;;;;;5081691;28;20522;-60
2022/04/17 01:37:13;;;;;;;2.60;2.38;;;12.00;62.00;;;;;;5065123;28;20032;-61
2022/04/17 01:39:39;;;;;;;2.83;2.55;;;12.00;62.00;;;;;;5080559;28;20490;-60
2022/04/17 01:42:05;;;;;;;3.28;2.63;;;12.00;62.00;;;;;;5082128;28;20032;-60
2022/04/17 01:44:30;;;;;;;2.88;2.28;;;11.90;62.00;;;;;;5084309;28;20031;-60
2022/04/17 01:46:56;;;;;;;3.30;2.47;;;11.90;62.10;;;;;;5083380;28;20036;-61
2022/04/17 01:49:23;;;;;;;2.83;2.30;;;11.90;62.20;;;;;;5080930;28;20028;-61
2022/04/17 01:51:51;;;;;;;2.85;2.42;;;11.90;62.20;;;;;;5099917;28;20020;-60
2022/04/17 01:54:17;;;;;;;2.88;2.45;;;11.80;62.10;;;;;;5064502;28;20432;-60
2022/04/17 01:56:43;;;;;;;3.20;2.90;;;11.80;62.10;;;;;;5078362;28;20066;-60
2022/04/17 01:59:09;;;;;;;2.85;2.53;;;11.80;62.00;;;;;;5082297;28;20111;-60
2022/04/17 02:01:35;;;;;;;3.10;2.40;;;11.80;61.90;;;;;;5081743;28;20641;-59
2022/04/17 02:04:01;;;;;;;2.95;2.38;;;11.70;62.00;;;;;;5065040;28;20537;-60
2022/04/17 02:06:26;;;;;;;3.50;2.83;;;11.70;62.10;;;;;;5048079;28;20034;-60
2022/04/17 02:08:52;;;;;;;3.72;3.10;;;11.70;62.10;;;;;;5083393;28;20115;-60
2022/04/17 02:11:18;;;;;;;3.33;2.55;;;11.60;62.00;;;;;;5079549;28;20020;-61
2022/04/17 02:13:45;;;;;;;3.40;2.78;;;11.60;62.10;;;;;;5082519;28;20607;-61
2022/04/17 02:16:11;;;;;;;3.28;2.67;;;11.60;62.10;;;;;;5081785;28;20111;-59
2022/04/17 02:18:36;;;;;;;4.32;2.88;;;11.50;62.00;;;;;;5081229;28;20413;-61
2022/04/17 02:21:02;;;;;;;4.13;2.63;;;11.50;62.10;;;;;;5062557;28;20218;-60
2022/04/17 02:23:27;;;;;;;3.72;2.80;;;11.50;62.10;;;;;;5080966;28;20033;-60
2022/04/17 02:25:53;;;;;;;3.05;2.75;;;11.50;62.10;;;;;;5078008;28;20040;-60
2022/04/17 02:28:18;;;;;;;5.05;2.90;;;11.50;62.20;;;;;;5081404;28;20131;-61
2022/04/17 02:30:44;;;;;;;4.18;2.80;;;11.40;62.30;;;;;;5079841;28;20024;-60
2022/04/17 02:33:10;;;;;;;3.03;2.72;;;11.40;62.20;;;;;;5081463;28;20056;-61
2022/04/17 02:35:36;;;;;;;2.90;2.50;;;11.30;62.30;;;;;;5084623;28;20460;-60
2022/04/17 02:38:01;;;;;;;4.03;2.80;;;11.30;62.30;;;;;;5082558;28;20071;-60
2022/04/17 02:40:27;;;;;;;5.30;3.45;;;11.30;62.30;;;;;;5076622;28;20481;-60
2022/04/17 02:42:55;;;;;;;4.28;2.97;;;11.30;62.30;;;;;;5079230;28;20115;-60
2022/04/17 02:45:21;;;;;;;4.03;3.33;;;11.20;62.50;;;;;;5080780;28;20177;-61
2022/04/17 02:47:48;;;;;;;3.35;2.90;;;11.20;62.50;;;;;;5079231;28;20124;-59
2022/04/17 02:50:15;;;;;;;3.72;3.13;;;11.20;62.60;;;;;;5081278;28;20055;-60
2022/04/17 02:52:41;;;;;;;4.93;3.45;;;11.20;62.70;;;;;;5065213;28;20040;-60
2022/04/17 02:55:07;;;;;;;4.18;3.13;;;11.20;62.60;;;;;;5079686;28;20024;-61
2022/04/17 02:57:32;;;;;;;4.72;3.08;;;11.20;62.60;;;;;;5081652;28;20345;-60
2022/04/17 02:59:58;;;;;;;4.18;2.83;;;11.10;62.60;;;;;;5082269;28;20111;-59
2022/04/17 03:07:52;;;;;;;5.10;3.40;;;11.10;62.70;;;;;;5081112;28;20110;-60
2022/04/17 03:10:18;;;;;;;3.75;3.17;;;11.10;62.70;;;;;;5079404;28;20479;-59
2022/04/17 03:12:44;;;;;;;4.07;3.30;;;11.10;62.90;;;;;;5080128;28;20612;-60
2022/04/17 03:15:10;;;;;;;4.88;3.45;;;11.10;63.00;;;;;;5081176;28;20016;-60
2022/04/17 03:17:35;;;;;;;6.93;3.67;;;11.00;62.80;;;;;;5097473;28;20024;-61
2022/04/17 03:20:03;;;;;;;5.32;3.78;;;11.00;62.80;;;;;;5081052;28;20032;-60
2022/04/17 03:22:28;;;;;;;4.45;3.42;;;11.00;62.90;;;;;;5080338;28;20149;-61
2022/04/17 03:24:54;;;;;;;6.97;4.30;;;11.00;62.90;;;;;;5079883;28;20016;-61
2022/04/17 03:27:19;;;;;;;5.30;4.00;;;11.00;63.00;;;;;;5081269;28;20402;-61
2022/04/17 03:29:45;;;;;;;5.45;3.78;;;11.00;63.00;;;;;;5078812;28;20040;-60
2022/04/17 03:32:11;;;;;;;5.32;4.22;;;10.90;63.10;;;;;;5079617;28;20047;-60
2022/04/17 03:34:36;;;;;;;5.15;4.03;;;10.90;63.20;;;;;;5081012;28;20028;-61
2022/04/17 03:37:03;;;;;;;5.82;3.83;;;10.90;63.10;;;;;;5080526;28;20267;-61
2022/04/17 03:39:28;;;;;;;4.57;3.75;;;10.90;63.20;;;;;;5054393;28;20024;-60
2022/04/17 03:41:54;;;;;;;5.97;4.10;;;10.90;63.30;;;;;;5071469;28;20035;-61
2022/04/17 03:44:20;;;;;;;4.72;3.83;;;10.80;63.30;;;;;;5069195;28;20028;-60
2022/04/17 03:46:47;;;;;;;4.80;3.70;;;10.80;63.40;;;;;;5071875;28;20052;-61
2022/04/17 03:49:13;;;;;;;4.32;3.85;;;10.80;63.50;;;;;;5067677;28;20016;-61
2022/04/17 03:51:39;;;;;;;6.18;4.72;;;10.70;63.50;;;;;;5073001;28;20101;-60
2022/04/17 03:54:04;;;;;;;6.55;4.00;;;10.70;63.50;;;;;;5061926;28;20044;-59
2022/04/17 03:56:30;;;;;;;4.35;3.95;;;10.70;63.60;;;;;;5071029;28;20059;-60
2022/04/17 03:58:55;;;;;;;4.55;4.03;;;10.70;63.70;;;;;;5060938;28;20028;-60
2022/04/17 04:01:21;;;;;;;6.30;4.57;;;10.60;63.70;;;;;;5063287;28;20024;-61
2022/04/17 04:03:47;;;;;;;7.20;4.22;;;10.60;64.10;;;;;;5063483;28;20098;-61
2022/04/17 04:06:13;;;;;;;6.00;4.10;;;10.60;64.00;;;;;;5070876;28;20286;-60
2022/04/17 04:08:39;;;;;;;6.80;4.47;;;10.60;64.00;;;;;;5076096;28;20039;-60
2022/04/17 04:11:05;;;;;;;5.40;4.05;;;10.60;64.00;;;;;;5080365;28;20137;-60
2022/04/17 04:13:31;;;;;;;7.18;4.32;;;10.60;64.00;;;;;;5076686;28;20435;-60
2022/04/17 04:15:57;;;;;;;4.88;4.15;;;10.60;64.10;;;;;;5079694;28;20131;-60
2022/04/17 04:18:22;;;;;;;7.55;4.22;;;10.60;64.00;;;;;;5079808;28;20119;-60
2022/04/17 04:20:48;;;;;;;5.57;4.10;;;10.60;64.00;;;;;;5044468;28;20278;-60
2022/04/17 04:23:13;;;;;;;5.35;3.90;;;10.50;64.00;;;;;;5061731;28;20032;-60
2022/04/17 04:25:39;;;;;;;6.43;4.00;;;10.50;64.10;;;;;;5078343;28;20107;-60
2022/04/17 04:30:49;;;;;;;7.82;4.63;;;10.30;64.50;;;;;;5081794;28;20051;-61
2022/04/17 04:33:14;;;;;;;6.75;4.35;;;10.50;64.40;;;;;;5047007;28;20043;-60
2022/04/17 04:35:40;;;;;;;6.10;3.97;;;10.40;64.20;;;;;;5066784;28;20043;-61
2022/04/17 04:38:06;;;;;;;4.75;4.18;;;10.40;64.50;;;;;;5069090;28;20026;-60
2022/04/17 04:40:32;;;;;;;5.45;4.20;;;10.40;64.40;;;;;;5060595;28;20052;-61
2022/04/17 04:43:01;;;;;;;5.10;4.10;;;10.40;64.40;;;;;;5066030;28;20036;-59
2022/04/17 04:48:10;;;;;;;43.17;7.10;;;10.40;64.80;;;;;;5056175;28;20119;-61
2022/04/17 04:50:36;;;;;;;16.77;5.22;;;10.40;65.10;;;;;;5058118;28;20050;-60
2022/04/17 04:53:02;;;;;;;10.23;5.03;;;10.30;65.10;;;;;;5068034;28;20028;-59
2022/04/17 04:55:27;;;;;;;15.98;4.80;;;10.30;65.20;;;;;;5068069;28;20025;-60
2022/04/17 04:57:53;;;;;;;18.30;5.78;;;10.30;65.20;;;;;;5068707;28;20032;-61
2022/04/17 05:00:18;;;;;;;42.33;6.68;;;10.30;65.20;;;;;;5070451;28;20021;-60
2022/04/17 05:02:44;;;;;;;33.50;6.97;;;10.30;65.40;;;;;;5065434;28;20040;-60
2022/04/17 05:05:10;;;;;;;84.95;11.07;;;10.20;65.50;;;;;;5045475;28;20048;-60
2022/04/17 05:07:36;;;;;;;55.42;8.80;;;10.20;65.40;;;;;;5029312;28;20336;-60
2022/04/17 05:10:02;;;;;;;101.72;11.32;;;10.20;65.40;;;;;;5034030;28;20067;-61
2022/04/17 05:12:27;;;;;;;89.60;10.75;;;10.20;65.30;;;;;;5047165;28;20034;-60
2022/04/17 05:14:53;;;;;;;97.25;10.50;;;10.20;65.40;;;;;;5069462;28;20062;-59
2022/04/17 05:17:18;;;;;;;63.90;8.65;;;10.20;65.30;;;;;;5047061;28;20043;-60
2022/04/17 05:19:45;;;;;;;55.38;7.75;;;10.20;65.50;;;;;;5065881;28;20031;-60
2022/04/17 05:22:15;;;;;;;56.78;8.90;;;10.10;65.70;;;;;;5047211;28;20089;-60
2022/04/17 05:24:42;;;;;;;57.70;8.45;;;10.10;65.50;;;;;;5055656;28;20039;-60
2022/04/17 05:27:07;;;;;;;45.13;6.53;;;10.00;65.50;;;;;;5051030;28;20024;-60
2022/04/17 05:29:33;;;;;;;33.90;6.47;;;10.30;65.90;;;;;;5046963;28;20538;-62
2022/04/17 05:32:00;;;;;;;49.70;7.03;;;10.00;65.70;;;;;;5072183;28;20144;-60
2022/04/17 05:34:25;;;;;;;38.30;6.60;;;10.10;65.60;;;;;;5064772;28;20027;-60
2022/04/17 05:36:51;;;;;;;32.22;6.72;;;10.00;65.50;;;;;;5066287;28;20020;-60
2022/04/17 05:39:16;;;;;;;20.00;5.70;;;10.00;65.70;;;;;;5083459;28;20369;-61
2022/04/17 05:41:42;;;;;;;19.48;6.18;;;10.00;65.80;;;;;;5085635;28;20123;-60
2022/04/17 05:44:07;;;;;;;22.92;5.80;;;10.00;65.70;;;;;;5047603;28;20024;-60
2022/04/17 05:46:35;;;;;;;28.60;5.55;;;10.00;65.70;;;;;;5082921;28;20024;-60
2022/04/17 05:49:02;;;;;;;13.90;5.05;;;10.00;65.80;;;;;;5048094;28;20484;-60
2022/04/17 05:51:28;;;;;;;14.05;4.55;;;9.90;65.70;;;;;;5065185;28;20063;-60
2022/04/17 05:53:53;;;;;;;14.35;5.25;;;9.90;65.60;;;;;;5064752;28;20055;-61
2022/04/17 05:56:19;;;;;;;12.88;4.93;;;9.90;66.50;;;;;;5064710;28;20024;-61
2022/04/17 05:58:44;;;;;;;11.20;4.13;;;9.90;65.70;;;;;;5084113;28;20226;-60
2022/04/17 06:01:11;;;;;;;19.17;5.55;;;9.90;65.60;;;;;;5066259;28;20167;-60
2022/04/17 06:03:37;;;;;;;13.50;4.25;;;9.90;65.60;;;;;;5083211;28;20023;-61
2022/04/17 06:06:02;;;;;;;9.65;4.30;;;9.90;65.50;;;;;;5065965;28;20484;-60
2022/04/17 06:08:28;;;;;;;9.77;4.35;;;9.90;65.40;;;;;;5082823;28;20016;-60
2022/04/17 06:10:54;;;;;;;9.30;4.40;;;9.90;65.50;;;;;;5080581;28;20046;-61
2022/04/17 06:13:19;;;;;;;13.23;4.18;;;9.90;65.70;;;;;;5081300;28;20055;-60
2022/04/17 06:15:45;;;;;;;11.88;4.38;;;9.80;65.70;;;;;;5082026;28;20060;-59
2022/04/17 06:18:10;;;;;;;7.45;4.32;;;9.90;65.90;;;;;;5080592;28;20024;-60
2022/04/17 06:20:36;;;;;;;8.18;4.00;;;9.80;65.90;;;;;;5081491;28;20055;-61
2022/04/17 06:23:01;;;;;;;12.27;4.55;;;9.80;66.00;;;;;;5081760;28;20101;-61
2022/04/17 06:25:27;;;;;;;6.40;3.95;;;9.80;65.90;;;;;;5063870;28;20050;-60
2022/04/17 06:27:52;;;;;;;9.15;4.35;;;9.80;65.90;;;;;;5082646;28;20522;-60
2022/04/17 06:30:19;;;;;;;6.72;3.88;;;9.70;65.90;;;;;;5081732;28;20088;-61
2022/04/17 06:32:45;;;;;;;7.88;3.60;;;9.80;65.70;;;;;;5063856;28;20082;-61
2022/04/17 06:35:11;;;;;;;5.10;3.70;;;9.70;65.70;;;;;;5063282;28;20052;-60
2022/04/17 06:37:57;;;;;;;9.05;4.05;;;9.60;65.60;;;;;;5063461;28;20051;-61
2022/04/17 06:40:25;;;;;;;5.25;3.83;;;9.70;65.60;;;;;;5061554;28;20347;-60
2022/04/17 06:42:52;;;;;;;9.45;4.25;;;9.60;65.60;;;;;;5063560;28;20032;-60
2022/04/17 06:45:17;;;;;;;7.45;3.33;;;9.60;65.40;;;;;;5081896;28;20020;-60
2022/04/17 06:47:43;;;;;;;4.95;3.53;;;9.70;65.50;;;;;;5048211;28;20024;-60
2022/04/17 06:50:09;;;;;;;4.80;3.58;;;9.70;65.30;;;;;;5063065;28;20067;-61
2022/04/17 06:52:35;;;;;;;4.38;3.00;;;9.70;65.30;;;;;;5060217;28;20020;-60
2022/04/17 06:55:00;;;;;;;7.85;3.53;;;9.60;65.10;;;;;;5061671;28;20600;-60
2022/04/17 06:57:30;;;;;;;6.05;3.70;;;9.60;65.30;;;;;;5045439;28;20166;-60
2022/04/17 06:59:55;;;;;;;5.50;3.45;;;9.60;65.00;;;;;;5045071;28;20467;-60
2022/04/17 07:02:21;;;;;;;15.68;3.30;;;9.60;65.00;;;;;;5081053;28;20036;-60
2022/04/17 07:04:46;;;;;;;5.60;3.50;;;9.60;65.10;;;;;;5080137;28;20025;-60
2022/04/17 07:07:12;;;;;;;6.75;3.28;;;9.60;65.00;;;;;;5063972;28;20036;-61
2022/04/17 07:09:37;;;;;;;7.47;3.45;;;9.60;64.70;;;;;;5063617;28;20453;-60
2022/04/17 07:12:03;;;;;;;6.78;3.63;;;9.60;64.70;;;;;;5046378;28;20130;-61
2022/04/17 07:14:28;;;;;;;4.30;3.08;;;9.60;64.60;;;;;;5082846;28;20040;-60
2022/04/17 07:16:54;;;;;;;7.53;3.03;;;9.60;64.50;;;;;;5082233;28;20056;-60
2022/04/17 07:19:20;;;;;;;4.63;3.53;;;9.60;64.50;;;;;;5079812;28;20035;-60
2022/04/17 07:21:46;;;;;;;6.35;3.58;;;9.60;64.60;;;;;;5061159;28;20468;-60
2022/04/17 07:24:11;;;;;;;10.30;3.50;;;9.60;64.60;;;;;;5078562;28;20082;-60
2022/04/17 07:26:37;;;;;;;4.95;3.10;;;9.60;64.60;;;;;;5079305;28;20043;-60
2022/04/17 07:29:03;;;;;;;5.47;3.20;;;9.60;64.60;;;;;;5080300;28;20518;-61
2022/04/17 07:31:29;;;;;;;3.58;3.08;;;9.60;64.60;;;;;;5060933;28;20138;-61
2022/04/17 07:33:54;;;;;;;4.53;3.22;;;9.60;64.60;;;;;;5076238;28;20173;-61
2022/04/17 07:36:20;;;;;;;6.68;3.40;;;9.60;64.60;;;;;;5079922;28;20028;-60
2022/04/17 07:38:46;;;;;;;4.57;2.95;;;9.60;64.50;;;;;;5064375;28;20264;-60
2022/04/17 07:41:11;;;;;;;3.67;2.90;;;9.50;64.50;;;;;;5029275;28;20097;-60
2022/04/17 07:43:37;;;;;;;3.22;2.65;;;9.60;64.50;;;;;;5081284;28;20038;-61
2022/04/17 07:46:02;;;;;;;3.55;3.00;;;9.60;64.70;;;;;;5062541;28;20036;-60
2022/04/17 07:48:28;;;;;;;3.40;3.00;;;9.50;65.30;;;;;;5062599;28;20024;-61
2022/04/17 07:50:54;;;;;;;4.72;2.90;;;9.60;64.60;;;;;;5077574;28;20024;-60
2022/04/17 07:53:20;;;;;;;4.38;2.90;;;9.60;64.50;;;;;;5081975;28;20436;-60
2022/04/17 07:55:46;;;;;;;3.55;2.92;;;9.60;64.50;;;;;;5081517;28;20028;-59
2022/04/17 07:58:16;;;;;;;2.83;2.38;;;9.60;64.40;;;;;;5062246;28;20043;-60
2022/04/17 08:00:57;;;;;;;3.95;2.90;;;9.60;64.40;;;;;;5044909;28;20028;-60
2022/04/17 08:06:00;;;;;;;4.75;3.10;;;9.60;64.40;;;;;;5079478;28;20020;-59
2022/04/17 08:08:26;;;;;;;4.45;2.95;;;9.60;64.30;;;;;;5045739;28;20028;-61
2022/04/17 08:10:51;;;;;;;4.45;3.03;;;9.60;64.20;;;;;;5065336;28;20055;-60
2022/04/17 08:13:17;;;;;;;4.75;3.03;;;9.60;64.30;;;;;;5065645;28;20082;-60
2022/04/17 08:15:43;;;;;;;4.78;3.33;;;9.60;64.30;;;;;;5068545;28;20028;-60
2022/04/17 08:18:08;;;;;;;3.40;3.00;;;9.70;64.40;;;;;;5036113;28;20362;-60
2022/04/17 08:20:34;;;;;;;4.35;2.85;;;9.70;64.40;;;;;;5052498;28;20491;-61
2022/04/17 08:23:00;;;;;;;4.28;2.78;;;9.70;64.20;;;;;;5077886;28;20032;-60
2022/04/17 08:25:25;;;;;;;5.03;3.20;;;9.70;64.10;;;;;;5062706;28;20553;-60
2022/04/17 08:27:52;;;;;;;6.78;3.20;;;9.70;64.20;;;;;;5081398;28;20270;-59
2022/04/17 08:30:37;;;;;;;7.32;3.28;;;9.70;64.10;;;;;;5064942;28;20035;-61
2022/04/17 08:33:04;;;;;;;7.50;3.25;;;9.80;64.00;;;;;;5082111;28;20105;-60
2022/04/17 08:35:29;;;;;;;10.73;3.30;;;9.80;63.80;;;;;;5082798;28;20340;-60
2022/04/17 08:37:57;;;;;;;8.80;3.05;;;9.80;63.70;;;;;;5064078;28;20047;-59
2022/04/17 08:40:24;;;;;;;14.60;3.50;;;9.80;63.90;;;;;;5083906;28;20117;-61
2022/04/17 08:42:49;;;;;;;6.15;3.05;;;9.90;63.90;;;;;;5049768;28;20063;-60
2022/04/17 08:45:14;;;;;;;6.75;3.10;;;9.90;63.40;;;;;;5066459;28;20119;-60
2022/04/17 08:47:41;;;;;;;10.20;3.10;;;9.90;63.50;;;;;;5066758;28;20032;-60
2022/04/17 08:50:11;;;;;;;8.05;3.47;;;9.90;63.30;;;;;;5064112;28;20019;-60
2022/04/17 08:52:37;;;;;;;14.45;3.97;;;10.00;63.10;;;;;;5046203;28;20153;-61
2022/04/17 08:55:03;;;;;;;6.53;3.35;;;10.00;63.00;;;;;;5064105;28;20048;-60
2022/04/17 08:57:29;;;;;;;11.60;4.15;;;10.10;62.90;;;;;;5083289;28;20038;-60
2022/04/17 08:59:54;;;;;;;12.40;4.53;;;10.10;63.10;;;;;;5062790;28;20120;-61
2022/04/17 09:02:20;;;;;;;17.17;3.92;;;10.10;63.20;;;;;;5064912;28;20102;-60
2022/04/17 09:04:46;;;;;;;17.63;4.07;;;10.10;63.20;;;;;;5062550;28;20020;-60
2022/04/17 09:07:11;;;;;;;21.88;4.47;;;10.20;63.20;;;;;;5064075;28;20063;-60
2022/04/17 09:09:47;;;;;;;16.48;4.05;;;10.20;63.10;;;;;;5080493;28;20087;-60
2022/04/17 09:12:25;;;;;;;;;;;10.20;62.90;;;;;;5055765;28;20036;-61
2022/04/17 09:14:51;;;;;;;17.88;4.35;;;10.20;62.80;;;;;;5082085;28;19974;-61
2022/04/17 09:17:16;;;;;;;12.20;4.03;;;10.30;62.90;;;;;;5064776;28;20582;-60
2022/04/17 09:19:42;;;;;;;12.90;4.50;;;10.30;62.90;;;;;;5063751;28;20206;-60
2022/04/17 09:22:09;;;;;;;58.60;9.32;;;10.30;62.90;;;;;;5061326;28;20050;-60
2022/04/17 09:24:36;;;;;;;30.63;5.05;;;10.30;62.90;;;;;;5061388;28;20020;-60
2022/04/17 09:27:02;;;;;;;24.92;5.50;;;10.40;62.80;;;;;;5081579;28;20020;-60
2022/04/17 09:29:29;;;;;;;33.13;5.13;;;10.40;62.80;;;;;;5065281;28;20032;-60
2022/04/17 09:32:01;;;;;;;29.73;4.93;;;10.40;62.70;;;;;;5046827;28;20480;-60
2022/04/17 09:34:27;;;;;;;22.23;4.78;;;10.50;62.70;;;;;;5076431;28;20729;-60
2022/04/17 09:36:57;;;;;;;21.60;4.13;;;10.40;62.50;;;;;;5048795;28;20051;-61
2022/04/17 09:39:23;;;;;;;17.67;5.05;;;10.50;62.50;;;;;;5046700;28;20347;-61
2022/04/17 09:41:56;;;;;;;56.72;9.48;;;10.50;62.50;;;;;;5064049;28;20314;-60
2022/04/17 09:44:47;;;;;;;18.60;4.78;;;10.60;62.00;;;;;;5046107;28;20063;-61
2022/04/17 09:47:28;;;;;;;26.38;4.75;;;10.60;62.00;;;;;;5077562;28;20043;-60
2022/04/17 09:50:06;;;;;;;20.23;5.20;;;10.60;61.30;;;;;;5060850;28;20034;-59
2022/04/17 09:52:45;;;;;;;28.33;4.03;;;10.70;61.10;;;;;;5066618;28;20107;-60
2022/04/17 09:55:10;;;;;;;27.63;4.57;;;10.70;60.50;;;;;;5063845;28;20048;-60
2022/04/17 09:57:37;;;;;;;22.80;4.32;;;10.70;60.50;;;;;;5082688;28;20035;-60
2022/04/17 10:00:15;;;;;;;12.90;4.13;;;10.80;60.50;;;;;;5059782;28;20036;-61
2022/04/17 10:02:43;;;;;;;16.13;4.00;;;10.90;59.70;;;;;;5076881;28;20119;-60
2022/04/17 10:05:11;;;;;;;11.77;3.70;;;10.90;59.00;;;;;;5063339;28;20028;-60
2022/04/17 10:07:41;;;;;;;13.23;3.38;;;11.00;58.60;;;;;;5046667;28;20016;-60
2022/04/17 10:10:07;;;;;;;17.33;3.90;;;11.00;58.40;;;;;;5063912;28;20490;-60
2022/04/17 10:12:34;;;;;;;12.35;3.83;;;11.00;58.40;;;;;;5062304;28;20040;-60
2022/04/17 10:15:04;;;;;;;15.90;4.05;;;11.00;58.00;;;;;;5063718;28;20501;-60
2022/04/17 10:17:30;;;;;;;16.80;3.70;;;11.10;57.90;;;;;;5064259;28;20146;-60
2022/04/17 10:19:55;;;;;;;21.90;3.67;;;11.10;57.90;;;;;;5062788;28;20658;-60
2022/04/17 10:22:21;;;;;;;23.85;4.55;;;11.10;57.70;;;;;;5064748;28;20491;-60
2022/04/17 10:24:51;;;;;;;26.42;4.35;;;11.10;57.80;;;;;;5045998;28;20024;-61
2022/04/17 10:27:24;;;;;;;27.45;4.63;;;11.20;58.20;;;;;;5081427;28;20549;-61
2022/04/17 10:30:04;;;;;;;23.08;4.00;;;11.20;57.90;;;;;;5045665;28;20128;-61
2022/04/17 10:32:36;;;;;;;19.65;4.03;;;11.20;57.60;;;;;;5063173;28;20373;-60
2022/04/17 10:35:26;;;;;;;22.60;3.35;;;11.30;57.50;;;;;;5080306;28;20115;-60
2022/04/17 10:38:16;;;;;;;18.58;4.47;;;11.30;57.40;;;;;;5081058;28;20071;-61
2022/04/17 10:40:52;;;;;;;22.55;4.25;;;11.30;57.30;;;;;;5049991;28;20054;-61
2022/04/17 10:43:18;;;;;;;16.30;4.22;;;11.40;57.30;;;;;;5064353;28;20107;-61
2022/04/17 10:46:08;;;;;;;23.02;3.55;;;11.40;57.60;;;;;;5079315;28;20099;-60
2022/04/17 10:48:46;;;;;;;56.42;7.15;;;11.40;57.10;;;;;;5081132;28;20028;-60
2022/04/17 10:51:22;;;;;;;34.22;4.53;;;11.50;56.90;;;;;;5062822;28;20036;-60
2022/04/17 10:54:04;;;;;;;34.13;4.55;;;11.50;57.00;;;;;;5062408;28;20024;-60
2022/04/17 10:56:32;;;;;;;17.50;3.83;;;11.60;57.10;;;;;;5080230;28;20024;-60
2022/04/17 10:58:59;;;;;;;18.65;4.18;;;11.60;56.70;;;;;;5077724;28;20068;-60
2022/04/17 11:01:43;;;;;;;19.08;4.07;;;11.70;56.70;;;;;;5060626;28;20140;-60
2022/04/17 11:04:22;;;;;;;28.45;3.28;;;11.70;56.70;;;;;;5077441;28;20035;-60
2022/04/17 11:07:10;;;;;;;23.58;3.60;;;11.80;56.30;;;;;;5074384;28;20020;-60
2022/04/17 11:09:40;;;;;;;26.92;4.60;;;11.80;56.60;;;;;;5049963;28;20078;-59
2022/04/17 11:12:06;;;;;;;23.70;3.47;;;11.90;56.70;;;;;;5077826;28;20032;-60
2022/04/17 11:14:32;;;;;;;31.42;3.78;;;12.00;56.70;;;;;;5078539;28;20035;-60
2022/04/17 11:17:04;;;;;;;18.27;4.10;;;12.00;56.70;;;;;;5078466;28;20032;-60
2022/04/17 11:19:32;;;;;;;21.25;3.60;;;12.00;56.60;;;;;;5062436;28;20031;-60
2022/04/17 11:22:02;;;;;;;33.20;3.95;;;12.10;56.80;;;;;;5076061;28;20035;-60
2022/04/17 11:24:29;;;;;;;32.08;3.75;;;12.20;56.80;;;;;;5061642;28;20016;-60
2022/04/17 11:26:54;;;;;;;21.02;3.58;;;12.20;56.70;;;;;;5061872;28;20020;-60
2022/04/17 11:29:50;;;;;;;28.63;3.97;;;12.30;56.70;;;;;;5080181;28;20085;-60
2022/04/17 11:32:18;;;;;;;21.05;4.00;;;12.40;56.80;;;;;;5062489;28;20032;-60
2022/04/17 11:34:53;;;;;;;24.52;4.00;;;12.50;56.80;;;;;;5080494;28;20056;-62
2022/04/17 11:37:22;;;;;;;22.17;3.38;;;12.50;56.70;;;;;;5076251;28;20083;-61
2022/04/17 11:39:47;;;;;;;31.33;4.18;;;12.60;56.50;;;;;;5058770;28;20040;-60
2022/04/17 11:42:13;;;;;;;30.45;4.32;;;12.70;56.30;;;;;;5060499;28;20024;-60
2022/04/17 11:44:42;;;;;;;28.48;4.10;;;12.80;56.30;;;;;;5079315;28;20462;-60
2022/04/17 11:47:10;;;;;;;13.30;3.30;;;12.90;56.30;;;;;;5077786;28;20028;-60
2022/04/17 11:49:42;;;;;;;25.95;3.72;;;13.00;55.70;;;;;;5044131;28;20483;-60
2022/04/17 11:52:21;;;;;;;23.60;3.72;;;13.10;55.80;;;;;;5079582;28;20534;-60
2022/04/17 11:54:47;;;;;;;20.10;3.97;;;13.10;55.50;;;;;;5081845;28;20535;-60
2022/04/17 11:57:13;;;;;;;18.33;3.58;;;13.20;55.70;;;;;;5081453;28;20458;-60
2022/04/17 11:59:49;;;;;;;15.07;2.90;;;13.30;55.50;;;;;;5056034;28;20036;-60
2022/04/17 12:02:16;;;;;;;19.30;3.70;;;13.30;55.50;;;;;;5062123;28;20496;-61
2022/04/17 12:04:42;;;;;;;17.67;3.10;;;13.40;55.40;;;;;;5035595;28;20840;-60
2022/04/17 12:07:12;;;;;;;16.33;3.38;;;13.40;55.30;;;;;;5060652;28;20032;-61
2022/04/17 12:09:38;;;;;;;21.38;4.68;;;13.50;55.20;;;;;;5062778;28;20328;-59
2022/04/17 12:12:14;;;;;;;23.65;3.78;;;13.60;55.20;;;;;;5058812;28;20042;-60
2022/04/17 12:14:39;;;;;;;;;;;13.70;55.30;;;;;;5064081;28;20150;-60
2022/04/17 12:17:05;;;;;;;15.00;4.05;;;13.80;55.00;;;;;;5047675;28;20011;-60
2022/04/17 12:19:30;;;;;;;31.80;3.78;;;13.80;54.90;;;;;;5061607;28;20025;-60
2022/04/17 12:21:56;;;;;;;16.42;3.33;;;13.90;55.00;;;;;;5058895;28;20059;-60
2022/04/17 12:24:27;;;;;;;21.13;3.13;;;14.00;54.90;;;;;;5060478;28;20067;-60
2022/04/17 12:26:53;;;;;;;15.45;3.30;;;14.10;54.90;;;;;;5058468;28;20039;-60
2022/04/17 12:29:19;;;;;;;19.60;3.47;;;14.20;54.80;;;;;;5046766;28;20033;-60
2022/04/17 12:31:45;;;;;;;8.60;3.03;;;14.20;54.70;;;;;;5060378;28;20493;-60
2022/04/17 12:34:14;;;;;;;37.03;5.43;;;14.30;54.70;;;;;;5076147;28;20112;-60
2022/04/17 12:36:43;;;;;;;24.45;4.03;;;14.40;54.70;;;;;;5078756;28;20099;-60
2022/04/17 12:39:09;;;;;;;16.00;3.47;;;14.50;54.80;;;;;;5062989;28;20039;-61
2022/04/17 12:41:42;;;;;;;16.83;3.20;;;14.60;54.60;;;;;;5059289;28;20028;-60
2022/04/17 12:44:11;;;;;;;17.98;3.78;;;14.70;54.60;;;;;;5059527;28;20338;-60
2022/04/17 12:46:42;;;;;;;24.48;3.70;;;14.70;54.60;;;;;;5078286;28;20117;-61
2022/04/17 12:49:08;;;;;;;22.63;3.13;;;14.80;54.40;;;;;;5062197;28;20020;-60
2022/04/17 12:51:40;;;;;;;25.02;3.08;;;14.90;54.40;;;;;;5077147;28;20099;-60
2022/04/17 12:54:07;;;;;;;16.52;3.25;;;15.00;54.10;;;;;;5060631;28;20051;-60
2022/04/17 12:56:32;;;;;;;26.08;3.38;;;15.00;53.80;;;;;;5046296;28;20031;-60
2022/04/17 12:58:59;;;;;;;10.98;3.00;;;15.20;54.10;;;;;;5085381;28;20024;-60
2022/04/17 13:01:25;;;;;;;19.90;3.50;;;15.20;53.60;;;;;;5081033;28;20275;-60
2022/04/17 13:03:51;;;;;;;26.52;3.20;;;15.30;54.50;;;;;;5067158;28;20063;-60